Aviation Digital Data Service (ADDS)

Output produced by METARs form (2221 UTC 28 August 2016)
found at http://aviationweather.gov/adds/metars/
 
KRUT 282059Z 2821/2918 19008KT P6SM BKN050 BKN080 
     FM290000 15008KT P6SM SCT050 BKN100 BKN150 
     TEMPO 2900/2902 2SM TSRA BR OVC050CB 
     FM290200 15004KT P6SM BKN080 
     FM291200 32005KT P6SM BKN035 AMD LTD TO CLD VIS AND WIND